Flight Track Log - Related Links

Times and Time Zones

All times are in EDT time to prevent confusion due to time zone crossing. See the TCF3494 flight status page for this flight to view local times or setup timezone preferences in your user account.

Time Position Orientation Groundspeed Altitude Reporting Facility
EDT Latitude Longitude Course Direction KTS MPH feet Rate Location/Type
Sun 09:42:56 PM 42.0167 -87.8667 90° East 162 186 2,300  Level Chicago TRACON
Sun 09:43:52 PM 42.0131 -87.8022 94° East 180 207 3,500 1,627 Climbing Chicago Center
Sun 09:44:54 PM 42.0161 -87.7122 87° East 226 260 5,500 2,129 Climbing Chicago Center
Sun 09:45:00 PM 41.9472 -87.3268 95° East  Level FlightAware Approximate
Sun 09:45:56 PM 42.0036 -87.6067 99° East 274 315 7,900  Level Chicago Center
Sun 09:46:00 PM 41.9370 -87.1837 95° East  Level FlightAware Approximate
Sun 09:46:58 PM 41.9925 -87.5003 98° East 287 330 10,300  Level Chicago Center
Sun 09:47:00 PM 41.9333 -87.0403 90° East  Level FlightAware Approximate
Sun 09:48:00 PM 41.9333 -86.8967 90° East  Level FlightAware Approximate
Sun 09:48:00 PM 41.9772 -87.3606 98° East 320 368 12,000  Level Chicago Center
Sun 09:49:02 PM 41.9628 -87.2278 98° East 355 409 14,200 2,129 Climbing Chicago Center
Sun 09:50:04 PM 41.9478 -87.0933 98° East 363 418 16,400 1,756 Climbing Chicago Center
Sun 09:51:05 PM 41.9469 -86.9525 90° East 381 438 17,800 1,512 Climbing Chicago Center
Sun 09:52:07 PM 41.9489 -86.8064 89° East 391 450 19,500 1,742 Climbing Chicago Center
Sun 09:53:09 PM 41.9511 -86.6375 89° East 404 465 21,400 1,645 Climbing Chicago Center
Sun 09:54:11 PM 41.9531 -86.4828 89° East 412 474 22,900 1,366 Climbing Chicago Center
Sun 09:55:12 PM 41.9539 -86.3253 90° East 422 486 24,200 1,220 Climbing Chicago Center
Sun 09:56:14 PM 41.9519 -86.1631 91° East 433 498 25,400 1,065 Climbing Chicago Center
Sun 09:57:16 PM 41.9353 -85.9986 98° East 444 511 26,400 1,024 Climbing Chicago Center
Sun 09:58:17 PM 41.9200 -85.8319 97° East 448 516 27,500 1,073 Climbing Chicago Center
Sun 09:59:19 PM 41.9022 -85.6242 96° East 463 533 28,600 1,024 Climbing Chicago Center
Sun 10:00:20 PM 41.8922 -85.4467 94° East 471 542 29,600 976 Climbing Chicago Center
Sun 10:01:22 PM 41.8794 -85.2697 95° East 471 542 30,600 968 Climbing Chicago Center
Sun 10:02:24 PM 41.8675 -85.0969 95° East 461 531 31,600 976 Climbing Chicago Center
Sun 10:03:25 PM 41.8547 -84.9203 95° East 471 542 32,600 683 Climbing Chicago Center
Sun 10:04:27 PM 41.8417 -84.7483 96° East 465 535 33,000 585 Climbing Chicago Center
Sun 10:05:28 PM 41.8286 -84.5744 96° East 467 537 33,800 878 Climbing Chicago Center
Sun 10:06:30 PM 41.8156 -84.4036 96° East 464 534 34,800 585 Climbing Chicago Center
Sun 10:07:31 PM 41.8019 -84.2336 96° East 460 529 35,000 98 Climbing Chicago Center
Sun 10:08:33 PM 41.7889 -84.0642 96° East 458 527 35,000  Level Chicago Center
Sun 10:09:34 PM 41.7747 -83.8950 96° East 457 526 35,000  Level Chicago Center
Sun 10:10:36 PM 41.7567 -83.7119 97° East 453 521 35,000  Level Cleveland Center
Sun 10:11:36 PM 41.7406 -83.5386 97° East 453 521 35,000  Level Cleveland Center
Sun 10:12:36 PM 41.7281 -83.3711 96° East 453 521 35,000  Level Cleveland Center
Sun 10:13:36 PM 41.7153 -83.2008 96° East 453 521 35,000  Level Cleveland Center
Sun 10:14:36 PM 41.7022 -83.0333 96° East 453 521 35,000  Level Cleveland Center
Sun 10:15:36 PM 41.6892 -82.8661 96° East 453 521 35,000  Level Cleveland Center
Sun 10:16:36 PM 41.6742 -82.6736 96° East 458 527 35,000  Level Cleveland Center
Sun 10:17:36 PM 41.6583 -82.5036 97° East 458 527 35,000  Level Cleveland Center
Sun 10:18:36 PM 41.6481 -82.3533 95° East 458 527 35,000  Level Cleveland Center
Sun 10:19:36 PM 41.6339 -82.1861 96° East 458 527 35,000  Level Cleveland Center
Sun 10:20:36 PM 41.6194 -82.0164 96° East 458 527 35,000  Level Cleveland Center
Sun 10:21:36 PM 41.6050 -81.8300 96° East 463 533 35,000  Level Cleveland Center
Sun 10:22:36 PM 41.5900 -81.6603 97° East 463 533 35,000  Level Cleveland Center
Sun 10:23:36 PM 41.5750 -81.4936 97° East 463 533 35,000  Level Cleveland Center
Sun 10:24:36 PM 41.5572 -81.3239 98° East 463 533 35,000  Level Cleveland Center
Sun 10:25:36 PM 41.5417 -81.1600 97° East 458 527 35,000  Level Cleveland Center
Sun 10:26:36 PM 41.5278 -81.0047 97° East 453 521 35,000  Level Cleveland Center
Sun 10:27:36 PM 41.5094 -80.8411 98° East 453 521 35,000  Level Cleveland Center
Sun 10:28:36 PM 41.4950 -80.6747 97° East 447 514 35,000  Level Cleveland Center
Sun 10:29:36 PM 41.4783 -80.5111 98° East 447 514 35,000  Level Cleveland Center
Sun 10:30:36 PM 41.4614 -80.3256 97° East 453 521 35,000  Level Cleveland Center
Sun 10:31:36 PM 41.4444 -80.1622 98° East 448 516 35,000  Level Cleveland Center
Sun 10:32:36 PM 41.4269 -79.9933 98° East 448 516 35,000  Level Cleveland Center
Sun 10:33:36 PM 41.4072 -79.8300 99° East 448 516 35,000  Level Cleveland Center
Sun 10:34:36 PM 41.3894 -79.6642 98° East 448 516 35,000  Level Cleveland Center
Sun 10:35:36 PM 41.3733 -79.5011 97° East 448 516 35,000  Level Cleveland Center
Sun 10:36:36 PM 41.3550 -79.3356 98° East 448 516 35,000  Level Cleveland Center
Sun 10:37:36 PM 41.3364 -79.1700 98° East 448 516 35,000  Level Cleveland Center
Sun 10:38:36 PM 41.3175 -79.0072 99° East 448 516 35,000  Level Cleveland Center
Sun 10:39:36 PM 41.2983 -78.8392 99° East 448 516 35,000  Level Cleveland Center
Sun 10:40:36 PM 41.2814 -78.6792 98° East 448 516 35,000  Level Cleveland Center
Sun 10:41:36 PM 41.2617 -78.5169 99° East 448 516 35,000 -556 Level Cleveland Center
Sun 10:43:07 PM 41.2339 -78.2814 99° East 451 519 33,600 -795 Descending New York Center
Sun 10:44:07 PM 41.2108 -78.1161 100° East 451 519 33,000 -298 Descending New York Center
Sun 10:45:08 PM 41.1897 -77.9511 100° East 451 519 33,000  Level New York Center
Sun 10:46:09 PM 41.1703 -77.7889 99° East 451 519 33,000  Level New York Center
Sun 10:47:07 PM 41.1486 -77.6242 100° East 451 519 33,000  Level New York Center
Sun 10:48:07 PM 41.1206 -77.4586 103° East 457 526 33,000  Level New York Center
Sun 10:49:06 PM 41.0864 -77.2875 105° East 447 514 33,000  Level New York Center
Sun 10:50:07 PM 41.0575 -77.1250 103° East 447 514 33,000  Level New York Center
Sun 10:51:08 PM 41.0286 -76.9653 103° East 447 514 33,000 -1,000 Level New York Center
Sun 10:52:07 PM 40.9994 -76.8033 103° East 447 514 31,000 -2,400 Descending New York Center
Sun 10:53:08 PM 40.9661 -76.6381 105° East 447 514 28,200 -2,803 Descending New York Center
Sun 10:54:09 PM 40.9344 -76.4733 104° East 452 520 25,300 -2,898 Descending New York Center
Sun 10:55:06 PM 40.9067 -76.3117 103° East 452 520 22,500 -2,746 Descending New York Center
Sun 10:56:07 PM 40.8783 -76.1583 104° East 446 513 19,900 -2,459 Descending New York Center
Sun 10:57:08 PM 40.8531 -76.0275 104° East 423 487 17,500 -2,672 Descending New York Center
Sun 10:58:06 PM 40.8225 -75.8689 104° East 408 470 14,600 -2,319 Descending New York Center
Sun 10:59:07 PM 40.7950 -75.7297 105° East 397 457 12,900 -793 Descending New York Center
Sun 11:00:07 PM 40.7567 -75.5981 111° Southeast 383 441 13,000 50 Climbing New York Center
Sun 11:01:08 PM 40.7200 -75.4778 112° Southeast 392 451 13,000  Level New York Center
Sun 11:02:06 PM 40.6772 -75.3461 113° Southeast 392 451 13,000 -356 Level New York Center
Sun 11:03:06 PM 40.6306 -75.2036 113° Southeast 392 451 12,300 -1,190 Descending New York Center
Sun 11:04:07 PM 40.5894 -75.0753 113° Southeast 387 445 10,600 -1,140 Descending New York Center
Sun 11:05:07 PM 40.5539 -74.9611 112° Southeast 387 445 10,000 -290 Descending New York Center
Sun 11:06:11 PM 40.5000 -74.8000 114° Southeast 382 440 10,000  Level New York TRACON
Sun 11:07:17 PM 40.4667 -74.6667 108° East 380 437 10,000  Level New York TRACON
Sun 11:08:17 PM 40.4333 -74.5333 108° East 381 438 10,000  Level New York TRACON
Sun 11:09:11 PM 40.4667 -74.4167 69° East 373 429 10,000  Level New York TRACON
Sun 11:10:11 PM 40.5000 -74.3000 69° East 322 371 10,000 -800 Level New York TRACON
Sun 11:11:11 PM 40.5333 -74.2000 66° East 294 338 8,400 -1,619 Descending New York TRACON
Sun 11:12:17 PM 40.5833 -74.1167 52° Northeast 276 318 6,600 -1,619 Descending New York TRACON
Sun 11:13:17 PM 40.6500 -74.0500 37° Northeast 277 319 5,000 -1,300 Descending New York TRACON
Sun 11:14:17 PM 40.7000 -73.9667 52° Northeast 279 321 4,000 -500 Descending New York TRACON
Sun 11:15:17 PM 40.7333 -73.8833 62° Northeast 282 325 4,000  Level New York TRACON
Sun 11:16:23 PM 40.7833 -73.8000 52° Northeast 265 305 4,000 -450 Level New York TRACON
Sun 11:17:17 PM 40.8167 -73.7500 49° Northeast 224 258 3,100 -1,000 Descending New York TRACON

Login

Don't have an account? Register now (free) for customized features, flight alerts, and more!